Time;durP1;ratioP1;P1;durP2;ratioP2;P2;SDS_P1;SDS_P2;PMS_P1;PMS_P2;Temp;Humidity;BMP_temperature;BMP_pressure;BME280_temperature;BME280_humidity;BME280_pressure;Samples;Min_cycle;Max_cycle;Signal;HPM_P1;HPM_P2
2022/11/16 00:01:29;;;;;;;33.40;19.80;;;7.70;99.90;;;;;;5123174;27;20208;-66
2022/11/16 00:03:58;;;;;;;32.23;20.50;;;7.70;99.90;;;;;;5111852;28;20214;-64
2022/11/16 00:06:26;;;;;;;31.67;20.13;;;7.70;99.90;;;;;;5091235;28;20240;-64
2022/11/16 00:11:42;;;;;;;33.30;20.87;;;7.70;99.90;;;;;;5095378;28;20211;-64
2022/11/16 00:14:09;;;;;;;30.30;20.07;;;7.80;99.90;;;;;;5095259;28;20211;-65
2022/11/16 00:16:36;;;;;;;33.40;21.30;;;7.80;99.90;;;;;;5095622;28;20615;-64
2022/11/16 00:19:05;;;;;;;33.17;21.43;;;7.70;99.90;;;;;;5096598;28;20256;-64
2022/11/16 00:21:32;;;;;;;34.33;21.03;;;7.70;99.90;;;;;;5115874;28;20598;-65
2022/11/16 00:24:01;;;;;;;33.30;20.07;;;7.70;99.90;;;;;;5115802;27;20203;-64
2022/11/16 00:26:28;;;;;;;31.60;20.20;;;7.70;99.90;;;;;;5115688;28;20214;-64
2022/11/16 00:28:56;;;;;;;29.20;19.10;;;7.70;99.90;;;;;;5112741;27;20238;-64
2022/11/16 00:31:24;;;;;;;30.80;20.77;;;7.80;99.90;;;;;;5115712;27;20608;-65
2022/11/16 00:33:52;;;;;;;33.10;20.63;;;7.80;99.90;;;;;;5115849;27;20673;-65
2022/11/16 00:36:19;;;;;;;32.27;20.07;;;7.80;99.90;;;;;;5115295;28;20210;-65
2022/11/16 00:38:46;;;;;;;29.87;19.00;;;7.80;99.90;;;;;;5115675;28;20680;-66
2022/11/16 00:41:15;;;;;;;30.77;19.60;;;7.70;99.90;;;;;;5113393;28;20200;-64
2022/11/16 00:43:42;;;;;;;30.53;19.20;;;7.80;99.90;;;;;;5115847;28;20260;-64
2022/11/16 00:46:09;;;;;;;31.17;19.87;;;7.80;99.90;;;;;;5114759;27;20212;-65
2022/11/16 00:48:36;;;;;;;31.73;20.40;;;7.80;99.90;;;;;;5112914;28;20906;-65
2022/11/16 00:51:03;;;;;;;29.27;19.60;;;7.80;99.90;;;;;;5103637;28;20204;-64
2022/11/16 00:53:30;;;;;;;31.57;19.90;;;7.80;99.90;;;;;;5101205;28;20287;-63
2022/11/16 00:55:57;;;;;;;27.50;18.47;;;7.80;99.90;;;;;;5115342;28;20225;-64
2022/11/16 00:58:26;;;;;;;31.70;20.37;;;7.80;99.90;;;;;;5105636;27;20297;-64
2022/11/16 01:00:53;;;;;;;30.73;19.93;;;7.80;99.90;;;;;;5092967;28;20273;-65
2022/11/16 01:03:20;;;;;;;32.97;20.60;;;7.80;99.90;;;;;;5094583;28;20277;-64
2022/11/16 01:05:47;;;;;;;32.43;21.03;;;7.80;99.90;;;;;;5095078;28;20204;-65
2022/11/16 01:08:14;;;;;;;31.17;20.27;;;7.80;99.90;;;;;;5114083;28;20254;-64
2022/11/16 01:10:42;;;;;;;34.03;20.43;;;7.80;99.90;;;;;;5113713;28;20230;-65
2022/11/16 01:13:09;;;;;;;32.60;21.67;;;7.80;99.90;;;;;;5115425;28;20660;-65
2022/11/16 01:15:37;;;;;;;33.40;21.20;;;7.80;99.90;;;;;;5114139;28;20358;-64
2022/11/16 01:18:05;;;;;;;31.67;20.10;;;7.80;99.90;;;;;;5093934;28;20542;-64
2022/11/16 01:20:32;;;;;;;34.57;20.67;;;7.80;99.90;;;;;;5093247;28;20645;-65
2022/11/16 01:22:59;;;;;;;39.17;22.47;;;7.80;99.90;;;;;;5094673;28;20261;-64
2022/11/16 01:25:26;;;;;;;37.27;22.40;;;7.70;99.90;;;;;;5094511;28;20273;-65
2022/11/16 01:27:53;;;;;;;33.23;21.23;;;7.80;99.90;;;;;;5108609;28;20664;-65
2022/11/16 01:30:20;;;;;;;35.47;21.20;;;7.70;99.90;;;;;;5114259;28;20219;-65
2022/11/16 01:32:48;;;;;;;36.20;22.37;;;7.70;99.90;;;;;;5094702;28;20303;-64
2022/11/16 01:35:18;;;;;;;36.33;22.30;;;7.70;99.90;;;;;;5094028;28;20200;-64
2022/11/16 01:37:45;;;;;;;34.03;21.33;;;7.70;99.90;;;;;;5109830;28;20208;-64
2022/11/16 01:40:14;;;;;;;37.57;22.47;;;7.70;99.90;;;;;;5110597;28;20613;-64
2022/11/16 01:42:41;;;;;;;38.27;23.20;;;7.70;99.90;;;;;;5114404;28;20203;-64
2022/11/16 01:45:21;;;;;;;38.73;23.77;;;7.70;99.90;;;;;;5114298;28;20202;-64
2022/11/16 01:47:50;;;;;;;36.60;22.20;;;7.70;99.90;;;;;;5110338;28;20203;-65
2022/11/16 01:50:18;;;;;;;37.23;22.17;;;7.70;99.90;;;;;;5112300;28;20223;-64
2022/11/16 01:52:52;;;;;;;42.17;23.13;;;7.70;99.90;;;;;;5093841;28;20680;-65
2022/11/16 01:55:20;;;;;;;35.57;22.40;;;7.60;99.90;;;;;;5093950;28;20192;-64
2022/11/16 01:57:48;;;;;;;41.07;24.37;;;7.70;99.90;;;;;;5091719;28;20250;-64
2022/11/16 02:00:17;;;;;;;39.00;22.97;;;7.70;99.90;;;;;;5093376;28;20204;-65
2022/11/16 02:02:45;;;;;;;44.60;23.63;;;7.70;99.90;;;;;;5093634;28;20203;-66
2022/11/16 02:05:17;;;;;;;47.23;24.10;;;7.70;99.90;;;;;;5093778;28;20257;-64
2022/11/16 02:11:09;;;;;;;40.17;23.57;;;7.70;99.90;;;;;;5114000;28;20630;-64
2022/11/16 02:13:46;;;;;;;43.00;23.77;;;7.70;99.90;;;;;;5113979;28;20195;-65
2022/11/16 02:16:24;;;;;;;40.83;23.37;;;7.60;99.90;;;;;;5111515;28;20679;-65
2022/11/16 02:18:57;;;;;;;44.03;23.80;;;7.60;99.90;;;;;;5110857;28;20206;-64
2022/11/16 02:21:36;;;;;;;44.40;24.93;;;7.60;99.90;;;;;;5113615;28;20179;-63
2022/11/16 02:24:42;;;;;;;42.43;23.83;;;7.60;99.90;;;;;;5113581;27;20203;-65
2022/11/16 02:27:37;;;;;;;44.13;24.53;;;7.60;99.90;;;;;;5112416;28;20198;-64
2022/11/16 02:30:06;;;;;;;42.77;24.80;;;7.60;99.90;;;;;;5113313;28;20211;-63
2022/11/16 02:32:37;;;;;;;43.23;24.37;;;7.60;99.90;;;;;;5112539;28;20209;-65
2022/11/16 02:35:09;;;;;;;46.10;24.87;;;7.60;99.90;;;;;;5111301;28;20200;-64
2022/11/16 02:37:42;;;;;;;42.53;23.87;;;7.60;99.90;;;;;;5112340;28;20614;-64
2022/11/16 02:40:12;;;;;;;44.60;25.43;;;7.60;99.90;;;;;;5113213;28;20209;-65
2022/11/16 02:42:44;;;;;;;43.50;24.03;;;7.60;99.90;;;;;;5113832;28;20195;-64
2022/11/16 02:45:19;;;;;;;49.73;25.50;;;7.60;99.90;;;;;;5111993;28;20207;-63
2022/11/16 02:47:48;;;;;;;42.27;23.80;;;7.60;99.90;;;;;;5110937;28;20199;-64
2022/11/16 02:50:20;;;;;;;43.53;23.70;;;7.60;99.90;;;;;;5112720;28;20223;-65
2022/11/16 02:52:47;;;;;;;42.43;24.40;;;7.60;99.90;;;;;;5113439;28;20191;-65
2022/11/16 02:55:14;;;;;;;40.67;25.13;;;7.60;99.90;;;;;;5112178;28;20552;-64
2022/11/16 02:57:48;;;;;;;44.97;24.07;;;7.60;99.90;;;;;;5111930;28;20259;-65
2022/11/16 03:00:20;;;;;;;45.27;24.70;;;7.60;99.90;;;;;;5102676;28;20200;-65
2022/11/16 03:03:02;;;;;;;45.00;24.83;;;7.60;99.90;;;;;;5090905;28;20218;-64
2022/11/16 03:05:35;;;;;;;47.30;26.13;;;7.60;99.90;;;;;;5091981;28;20200;-64
2022/11/16 03:08:09;;;;;;;43.30;23.87;;;7.60;99.90;;;;;;5092353;28;20228;-65
2022/11/16 03:13:26;;;;;;;48.90;26.83;;;7.50;99.90;;;;;;5097477;28;20375;-64
2022/11/16 03:15:55;;;;;;;45.60;25.40;;;7.50;99.90;;;;;;5109449;28;20203;-65
2022/11/16 03:18:26;;;;;;;45.63;26.03;;;7.50;99.90;;;;;;5112467;28;20211;-65
2022/11/16 03:20:58;;;;;;;46.50;24.73;;;7.50;99.90;;;;;;5093126;28;20206;-64
2022/11/16 03:23:24;;;;;;;44.73;24.50;;;7.50;99.90;;;;;;5097298;28;20206;-64
2022/11/16 03:25:54;;;;;;;45.00;24.27;;;7.50;99.90;;;;;;5110519;28;20203;-64
2022/11/16 03:28:24;;;;;;;41.27;25.37;;;7.50;99.90;;;;;;5112608;28;20297;-63
2022/11/16 03:30:55;;;;;;;48.43;25.97;;;7.50;99.90;;;;;;5112495;28;20231;-65
2022/11/16 03:33:27;;;;;;;46.50;25.97;;;7.50;99.90;;;;;;5111280;28;20195;-66
2022/11/16 03:36:01;;;;;;;43.23;25.07;;;7.50;99.90;;;;;;5111032;28;20565;-64
2022/11/16 03:38:29;;;;;;;43.70;25.43;;;7.50;99.90;;;;;;5112525;28;20194;-63
2022/11/16 03:41:00;;;;;;;45.10;25.67;;;7.50;99.90;;;;;;5111704;28;20199;-64
2022/11/16 03:43:28;;;;;;;53.40;27.30;;;7.50;99.90;;;;;;5111064;28;20199;-64
2022/11/16 03:45:57;;;;;;;45.93;28.47;;;7.50;99.90;;;;;;5111113;28;20703;-64
2022/11/16 03:48:23;;;;;;;47.77;26.80;;;7.50;99.90;;;;;;5111909;28;20214;-63
2022/11/16 03:50:51;;;;;;;50.17;26.40;;;7.50;99.90;;;;;;5111912;28;20689;-64
2022/11/16 03:53:18;;;;;;;46.20;25.90;;;7.50;99.90;;;;;;5111220;28;20203;-64
2022/11/16 03:55:45;;;;;;;46.30;25.90;;;7.50;99.90;;;;;;5107550;28;20196;-64
2022/11/16 03:58:11;;;;;;;45.07;25.53;;;7.50;99.90;;;;;;5111682;28;20245;-63
2022/11/16 04:00:38;;;;;;;42.57;24.10;;;7.50;99.90;;;;;;5112359;28;20195;-64
2022/11/16 04:03:06;;;;;;;48.03;27.63;;;7.50;99.90;;;;;;5110822;27;21127;-65
2022/11/16 04:25:08;;;;;;;43.90;25.20;;;7.50;99.90;;;;;;5100874;28;20969;-64
2022/11/16 04:30:19;;;;;;;50.10;26.50;;;7.50;99.90;;;;;;5111649;28;20215;-64
2022/11/16 04:38:16;;;;;;;45.17;27.07;;;7.50;99.90;;;;;;5108177;28;20214;-64
2022/11/16 04:40:42;;;;;;;42.97;24.83;;;7.40;99.90;;;;;;5101279;28;20196;-63
2022/11/16 04:43:09;;;;;;;49.10;26.40;;;7.40;99.90;;;;;;5109541;28;20653;-64
2022/11/16 04:48:21;;;;;;;46.37;25.27;;;7.50;99.90;;;;;;5111474;28;20241;-64
2022/11/16 04:50:49;;;;;;;45.87;26.27;;;7.50;99.90;;;;;;5108031;28;20238;-65
2022/11/16 04:53:16;;;;;;;49.23;26.23;;;7.50;99.90;;;;;;5111720;28;20221;-65
2022/11/16 04:55:43;;;;;;;45.67;26.17;;;7.50;99.90;;;;;;5113767;28;20211;-65
2022/11/16 04:58:10;;;;;;;53.97;28.23;;;7.50;99.90;;;;;;5114989;27;20712;-64
2022/11/16 05:00:36;;;;;;;47.37;25.87;;;7.50;99.90;;;;;;5111877;28;20557;-64
2022/11/16 05:03:04;;;;;;;47.53;25.43;;;7.50;99.90;;;;;;5115118;28;20291;-64
2022/11/16 05:05:31;;;;;;;46.83;25.87;;;7.50;99.90;;;;;;5115355;28;20215;-64
2022/11/16 05:07:59;;;;;;;48.87;26.53;;;7.40;99.90;;;;;;5102676;28;20234;-64
2022/11/16 05:10:26;;;;;;;51.93;27.70;;;7.50;99.90;;;;;;5098133;28;20229;-65
2022/11/16 05:12:53;;;;;;;46.40;26.10;;;7.50;99.90;;;;;;5114931;28;20721;-64
2022/11/16 05:15:19;;;;;;;66.27;29.47;;;7.40;99.90;;;;;;5114061;28;20570;-65
2022/11/16 05:17:47;;;;;;;57.77;29.77;;;7.40;99.90;;;;;;5114779;28;20219;-65
2022/11/16 05:22:59;;;;;;;50.03;27.97;;;7.40;99.90;;;;;;5114304;28;20555;-65
2022/11/16 10:41:05;;;;;;;22.00;14.83;;;5.70;99.90;;;;;;5062891;27;1516958;-66
2022/11/16 10:43:32;;;;;;;21.50;14.37;;;6.20;99.90;;;;;;5102572;28;20217;-65
2022/11/16 10:46:11;;;;;;;24.20;15.23;;;6.30;99.90;;;;;;5092681;28;20575;-64
2022/11/16 10:48:41;;;;;;;20.87;13.67;;;6.40;99.90;;;;;;5093601;28;20546;-66
2022/11/16 10:51:09;;;;;;;17.93;11.97;;;6.40;99.90;;;;;;5099172;28;20203;-64
2022/11/16 10:53:37;;;;;;;19.07;12.20;;;6.40;99.90;;;;;;5107520;28;20199;-65
2022/11/16 10:56:17;;;;;;;19.00;11.90;;;6.40;99.90;;;;;;5096863;28;20221;-64
2022/11/16 10:58:52;;;;;;;19.03;12.13;;;6.40;99.90;;;;;;5106625;28;20218;-65
2022/11/16 11:01:28;;;;;;;16.83;11.40;;;6.50;99.90;;;;;;5096829;28;20290;-63
2022/11/16 11:03:55;;;;;;;17.20;10.80;;;6.50;99.90;;;;;;5093469;28;20196;-65
2022/11/16 11:06:24;;;;;;;18.47;10.27;;;6.50;99.90;;;;;;5092334;28;20200;-66
2022/11/16 11:08:51;;;;;;;19.97;10.03;;;6.50;99.90;;;;;;5090251;28;20212;-64
2022/11/16 11:14:11;;;;;;;21.07;12.07;;;6.60;99.90;;;;;;5106346;28;20576;-66
2022/11/16 11:16:40;;;;;;;19.80;11.40;;;6.60;99.90;;;;;;5109798;28;20697;-65
2022/11/16 11:19:24;;;;;;;17.57;11.90;;;6.60;99.90;;;;;;5107083;28;20216;-65
2022/11/16 11:21:56;;;;;;;15.83;10.80;;;6.60;99.90;;;;;;5106280;28;20644;-65
2022/11/16 11:24:23;;;;;;;17.43;11.47;;;6.50;99.90;;;;;;5094576;28;20657;-65
2022/11/16 11:26:53;;;;;;;18.70;11.80;;;6.50;99.90;;;;;;5108213;28;20689;-63
2022/11/16 11:29:24;;;;;;;20.70;12.73;;;6.50;99.90;;;;;;5108078;28;20199;-65
2022/11/16 11:31:53;;;;;;;24.23;13.43;;;6.40;99.90;;;;;;5090412;28;20199;-65
2022/11/16 11:34:23;;;;;;;22.43;14.47;;;6.50;99.90;;;;;;5096174;28;20209;-64
2022/11/16 11:36:53;;;;;;;23.37;14.30;;;6.40;99.90;;;;;;5108826;28;20301;-64
2022/11/16 11:39:29;;;;;;;25.73;14.43;;;6.40;99.90;;;;;;5108249;28;20235;-64
2022/11/16 11:42:06;;;;;;;23.93;14.80;;;6.40;99.90;;;;;;5095539;28;20200;-64
2022/11/16 11:44:41;;;;;;;26.90;15.37;;;6.40;99.90;;;;;;5095378;28;20187;-64
2022/11/16 11:47:32;;;;;;;23.20;14.70;;;6.40;99.90;;;;;;5092243;28;20196;-64
2022/11/16 11:50:11;;;;;;;22.63;13.13;;;6.40;99.90;;;;;;5090944;28;20386;-64
2022/11/16 11:52:41;;;;;;;22.10;12.20;;;6.40;99.90;;;;;;5078172;28;20226;-64
2022/11/16 11:55:13;;;;;;;22.10;12.50;;;6.40;99.90;;;;;;5074802;28;20212;-65
2022/11/16 11:57:44;;;;;;;19.20;12.27;;;6.40;99.90;;;;;;5071663;28;20211;-65
2022/11/16 12:00:14;;;;;;;26.00;15.43;;;6.30;99.90;;;;;;5092177;28;20219;-65
2022/11/16 12:03:00;;;;;;;21.13;13.03;;;6.30;99.90;;;;;;5094714;28;20293;-65
2022/11/16 12:05:51;;;;;;;19.03;11.63;;;6.30;99.90;;;;;;5075222;28;20208;-64
2022/11/16 12:08:35;;;;;;;21.07;13.43;;;6.30;99.90;;;;;;5076024;28;20208;-65
2022/11/16 12:11:07;;;;;;;22.60;13.87;;;6.30;99.90;;;;;;5092342;28;20192;-67
2022/11/16 12:13:49;;;;;;;24.40;14.43;;;6.20;99.90;;;;;;5074312;28;20383;-65
2022/11/16 12:16:26;;;;;;;29.97;18.90;;;6.20;99.90;;;;;;5073860;28;20238;-65
2022/11/16 12:19:13;;;;;;;25.33;16.37;;;6.20;99.90;;;;;;5073838;28;20222;-67
2022/11/16 12:21:49;;;;;;;28.07;17.37;;;6.20;99.90;;;;;;5076992;28;20208;-65
2022/11/16 12:24:32;;;;;;;29.20;17.23;;;6.10;99.90;;;;;;5090590;28;20200;-65
2022/11/16 12:27:13;;;;;;;30.93;18.63;;;6.10;99.90;;;;;;5094343;28;20188;-65
2022/11/16 12:29:51;;;;;;;30.00;18.00;;;6.00;99.90;;;;;;5094207;28;20537;-65
2022/11/16 12:32:31;;;;;;;29.07;18.33;;;6.00;99.90;;;;;;5092426;28;20620;-66
2022/11/16 12:35:13;;;;;;;27.80;17.90;;;6.00;99.90;;;;;;5074314;28;20208;-66
2022/11/16 12:37:48;;;;;;;28.43;17.83;;;6.00;99.90;;;;;;5073661;28;20208;-65
2022/11/16 12:40:29;;;;;;;32.13;19.63;;;6.10;99.90;;;;;;5073044;28;20320;-66
2022/11/16 12:43:02;;;;;;;31.17;18.33;;;6.10;99.90;;;;;;5073814;28;20189;-66
2022/11/16 12:45:47;;;;;;;34.63;19.73;;;6.10;99.90;;;;;;5085414;28;20204;-65
2022/11/16 12:48:32;;;;;;;32.73;19.47;;;6.10;99.90;;;;;;5082132;28;20196;-64
2022/11/16 12:51:08;;;;;;;26.10;16.67;;;6.10;99.90;;;;;;5089504;28;20204;-65
2022/11/16 12:53:54;;;;;;;28.30;17.43;;;6.10;99.90;;;;;;5090510;28;20196;-67
2022/11/16 12:56:33;;;;;;;27.60;16.63;;;6.10;99.90;;;;;;5090299;28;20196;-68
2022/11/16 12:59:27;;;;;;;25.03;16.20;;;5.90;99.90;;;;;;5076670;28;20215;-70
2022/11/16 13:02:05;;;;;;;34.00;17.43;;;5.90;99.90;;;;;;5058331;28;20204;-68
2022/11/16 13:04:39;;;;;;;30.37;17.33;;;5.90;99.90;;;;;;5078433;28;20201;-68
2022/11/16 13:07:11;;;;;;;27.03;16.33;;;6.00;99.90;;;;;;5082655;28;20283;-68
2022/11/16 13:09:40;;;;;;;24.00;14.93;;;5.90;99.90;;;;;;5072412;28;20197;-68
2022/11/16 13:12:13;;;;;;;29.90;16.63;;;5.90;99.90;;;;;;5072480;28;20204;-68
2022/11/16 13:14:42;;;;;;;21.57;13.13;;;5.90;99.90;;;;;;5075437;28;20193;-67
2022/11/16 13:17:16;;;;;;;28.77;19.03;;;5.90;99.90;;;;;;5092803;28;20241;-66
2022/11/16 13:19:45;;;;;;;22.50;13.03;;;5.90;99.90;;;;;;5093194;28;20209;-67
2022/11/16 13:22:19;;;;;;;21.17;12.43;;;5.90;99.90;;;;;;5093438;28;20215;-68
2022/11/16 13:24:52;;;;;;;19.70;12.03;;;5.80;99.90;;;;;;5093789;28;20192;-67
2022/11/16 13:27:31;;;;;;;22.93;12.20;;;5.80;99.90;;;;;;5092574;28;20200;-66
2022/11/16 13:30:03;;;;;;;21.27;13.03;;;5.70;99.90;;;;;;5093662;28;20184;-68
2022/11/16 13:32:45;;;;;;;19.70;12.50;;;5.70;99.90;;;;;;5093929;28;20694;-68
2022/11/16 13:35:15;;;;;;;20.80;12.60;;;5.80;99.90;;;;;;5093227;28;20188;-67
2022/11/16 13:37:47;;;;;;;24.77;15.63;;;5.70;99.90;;;;;;5093700;28;20202;-66
2022/11/16 13:40:30;;;;;;;27.63;17.63;;;5.70;99.90;;;;;;5091975;28;20235;-71
2022/11/16 13:43:16;;;;;;;23.33;15.13;;;5.70;99.90;;;;;;5093857;28;20632;-68
2022/11/16 13:45:52;;;;;;;26.10;15.37;;;5.70;99.90;;;;;;5092419;28;20223;-68
2022/11/16 13:48:25;;;;;;;20.17;13.87;;;5.60;99.90;;;;;;5093096;28;20187;-66
2022/11/16 13:50:55;;;;;;;19.73;12.03;;;5.70;99.90;;;;;;5089970;28;20223;-67
2022/11/16 13:53:28;;;;;;;19.43;11.43;;;5.70;99.90;;;;;;5071167;28;20205;-68
2022/11/16 13:55:57;;;;;;;16.70;10.87;;;5.70;99.90;;;;;;5073136;28;20197;-67
2022/11/16 13:58:26;;;;;;;18.43;11.83;;;5.60;99.90;;;;;;5073731;28;20579;-68
2022/11/16 14:01:02;;;;;;;20.73;12.57;;;5.60;99.90;;;;;;5078715;28;20216;-67
2022/11/16 14:03:38;;;;;;;19.93;13.13;;;5.60;99.90;;;;;;5070845;28;20650;-69
2022/11/16 14:06:07;;;;;;;20.10;12.33;;;5.60;99.90;;;;;;5072456;28;20199;-69
2022/11/16 14:08:48;;;;;;;20.27;12.47;;;5.60;99.90;;;;;;5072363;28;20205;-66
2022/11/16 14:11:34;;;;;;;16.80;11.20;;;5.70;99.90;;;;;;5072582;28;20565;-69
2022/11/16 23:45:55;;;;;;;8.53;6.53;;;1.80;99.90;;;;;;5089056;28;20622;-67
2022/11/16 23:48:22;;;;;;;8.23;6.40;;;1.80;99.90;;;;;;5089752;28;20683;-65
2022/11/16 23:50:49;;;;;;;7.73;6.10;;;1.90;99.90;;;;;;5088948;28;20624;-65
2022/11/16 23:53:16;;;;;;;7.50;6.30;;;1.90;99.90;;;;;;5089459;28;20559;-66
2022/11/16 23:55:42;;;;;;;7.80;6.33;;;1.90;99.90;;;;;;5089134;28;20200;-65
2022/11/16 23:58:13;;;;;;;8.13;6.37;;;1.80;99.90;;;;;;5088933;28;20218;-65
